Time;durP1;ratioP1;P1;durP2;ratioP2;P2;SDS_P1;SDS_P2;PMS_P1;PMS_P2;Temp;Humidity;BMP_temperature;BMP_pressure;BME280_temperature;BME280_humidity;BME280_pressure;Samples;Min_cycle;Max_cycle;Signal;HPM_P1;HPM_P2
2023/08/02 00:01:32;;;;;;;3.58;1.60;;;22.80;64.90;;;;;;6100301;22;92602;-91
2023/08/02 00:03:58;;;;;;;3.10;1.55;;;22.80;64.60;;;;;;6087568;23;95280;-91
2023/08/02 00:06:27;;;;;;;2.47;1.40;;;22.70;64.70;;;;;;6114967;23;91859;-92
2023/08/02 00:08:52;;;;;;;2.73;1.37;;;22.80;64.80;;;;;;6114384;23;92919;-87
2023/08/02 00:11:18;;;;;;;2.13;1.50;;;22.80;64.80;;;;;;6113478;22;92664;-93
2023/08/02 00:13:44;;;;;;;2.00;1.60;;;22.80;64.70;;;;;;6086667;23;96227;-90
2023/08/02 00:16:10;;;;;;;4.05;1.60;;;22.80;64.50;;;;;;6114265;23;94198;-92
2023/08/02 00:18:36;;;;;;;1.42;1.33;;;22.80;64.70;;;;;;6115536;23;92401;-89
2023/08/02 00:21:01;;;;;;;2.05;1.58;;;22.70;64.70;;;;;;6113811;22;91886;-90
2023/08/02 00:23:27;;;;;;;1.85;1.52;;;22.80;64.80;;;;;;6114593;23;92216;-90
2023/08/02 00:25:53;;;;;;;4.20;1.75;;;22.80;64.80;;;;;;6114920;23;92954;-91
2023/08/02 00:28:18;;;;;;;1.52;1.30;;;22.80;64.70;;;;;;6115805;23;92675;-92
2023/08/02 00:30:45;;;;;;;1.92;1.63;;;22.80;64.70;;;;;;6115468;22;92121;-89
2023/08/02 00:33:12;;;;;;;3.88;1.70;;;22.70;64.70;;;;;;6115393;23;92809;-92
2023/08/02 00:35:49;;;;;;;2.72;1.52;;;22.70;65.00;;;;;;6113923;23;93097;-92
2023/08/02 00:38:14;;;;;;;3.05;1.60;;;22.80;65.00;;;;;;6113718;23;93362;-92
2023/08/02 00:40:40;;;;;;;2.83;1.40;;;22.80;64.80;;;;;;6086258;23;92336;-90
2023/08/02 00:43:07;;;;;;;1.77;1.45;;;22.80;64.70;;;;;;6086687;23;95430;-92
2023/08/02 00:45:33;;;;;;;2.65;1.40;;;22.80;64.70;;;;;;6114975;23;93355;-90
2023/08/02 00:47:59;;;;;;;2.35;1.67;;;22.70;64.70;;;;;;6113964;23;92052;-89
2023/08/02 00:50:27;;;;;;;3.28;1.30;;;22.70;64.70;;;;;;6113308;23;93354;-88
2023/08/02 00:52:53;;;;;;;3.28;1.38;;;22.80;64.80;;;;;;6111669;22;96130;-91
2023/08/02 00:55:19;;;;;;;3.30;1.65;;;22.70;64.60;;;;;;6087876;23;95278;-91
2023/08/02 00:57:45;;;;;;;2.40;1.48;;;22.70;64.60;;;;;;6113905;23;92853;-92
2023/08/02 01:00:12;;;;;;;2.03;1.40;;;22.70;64.60;;;;;;6114240;22;92216;-92
2023/08/02 01:02:37;;;;;;;2.30;1.45;;;22.70;64.60;;;;;;6113844;23;93215;-93
2023/08/02 01:05:03;;;;;;;2.42;1.27;;;22.70;64.60;;;;;;6114179;23;94630;-90
2023/08/02 01:07:58;;;;;;;2.22;1.25;;;22.70;64.70;;;;;;6087702;23;92448;-90
2023/08/02 01:10:38;;;;;;;1.83;1.15;;;22.70;64.70;;;;;;6113773;22;93250;-91
2023/08/02 01:13:04;;;;;;;1.98;1.45;;;22.70;64.70;;;;;;6114453;23;93371;-90
2023/08/02 01:15:32;;;;;;;2.20;1.50;;;22.70;64.50;;;;;;6115539;23;93264;-91
2023/08/02 01:17:58;;;;;;;2.08;1.77;;;22.70;64.40;;;;;;6113279;22;92382;-92
2023/08/02 01:20:24;;;;;;;1.75;1.27;;;22.70;64.50;;;;;;6087989;23;91895;-91
2023/08/02 01:22:50;;;;;;;2.05;1.50;;;22.70;64.80;;;;;;6113689;23;92428;-88
2023/08/02 01:25:15;;;;;;;2.33;1.52;;;22.70;64.60;;;;;;6113035;23;92751;-93
2023/08/02 01:27:46;;;;;;;2.80;1.50;;;22.70;64.60;;;;;;6087228;23;93402;-87
2023/08/02 01:30:15;;;;;;;1.80;1.30;;;22.70;64.80;;;;;;6113337;22;92346;-90
2023/08/02 01:32:41;;;;;;;2.05;1.25;;;22.70;64.70;;;;;;6113894;22;95538;-91
2023/08/02 01:35:08;;;;;;;2.25;1.35;;;22.70;64.60;;;;;;6112838;23;93078;-91
2023/08/02 01:37:35;;;;;;;3.83;1.40;;;22.70;64.40;;;;;;6114700;23;92583;-91
2023/08/02 01:40:02;;;;;;;1.20;1.10;;;22.70;64.60;;;;;;6087427;23;93040;-90
2023/08/02 01:42:27;;;;;;;2.40;1.67;;;22.60;64.50;;;;;;6088204;23;94488;-89
2023/08/02 01:44:53;;;;;;;2.92;1.50;;;22.60;64.60;;;;;;6110972;22;95724;-92
2023/08/02 01:47:18;;;;;;;1.58;1.42;;;22.70;64.70;;;;;;6113983;23;92825;-91
2023/08/02 01:49:44;;;;;;;2.10;1.65;;;22.60;64.50;;;;;;6113513;23;93106;-91
2023/08/02 01:52:10;;;;;;;1.50;1.40;;;22.70;64.90;;;;;;6085606;23;96592;-90
2023/08/02 01:54:36;;;;;;;3.13;1.50;;;22.60;64.80;;;;;;6113533;23;93662;-93
2023/08/02 01:57:01;;;;;;;1.88;1.27;;;22.60;64.70;;;;;;6114444;23;92858;-90
2023/08/02 01:59:27;;;;;;;1.52;1.33;;;22.60;65.50;;;;;;6113952;23;92226;-91
2023/08/02 02:01:53;;;;;;;2.20;1.45;;;22.60;64.50;;;;;;6087083;23;95354;-90
2023/08/02 02:04:18;;;;;;;2.00;1.27;;;22.60;64.70;;;;;;6113105;23;93177;-92
2023/08/02 02:06:44;;;;;;;1.95;1.70;;;22.60;64.50;;;;;;6113893;23;92760;-92
2023/08/02 02:09:10;;;;;;;1.27;1.15;;;22.60;64.60;;;;;;6114946;23;92426;-92
2023/08/02 02:11:35;;;;;;;3.03;1.20;;;22.60;65.30;;;;;;6109948;22;95609;-92
2023/08/02 02:14:01;;;;;;;1.42;1.33;;;22.60;64.50;;;;;;6113439;23;92264;-90
2023/08/02 02:16:27;;;;;;;1.98;1.30;;;22.60;64.50;;;;;;6090063;23;92863;-92
2023/08/02 02:18:52;;;;;;;1.58;1.33;;;22.60;64.60;;;;;;6087999;23;92569;-94
2023/08/02 02:21:18;;;;;;;2.83;1.55;;;22.60;64.40;;;;;;6112842;22;96074;-92
2023/08/02 02:23:44;;;;;;;1.75;1.45;;;22.60;64.40;;;;;;6113993;23;93048;-92
2023/08/02 02:26:11;;;;;;;1.60;1.30;;;22.60;64.50;;;;;;6115319;23;92388;-92
2023/08/02 02:28:36;;;;;;;1.42;1.30;;;22.60;64.50;;;;;;6087516;23;92528;-89
2023/08/02 02:31:02;;;;;;;1.23;1.13;;;22.60;64.60;;;;;;6087705;23;95740;-90
2023/08/02 02:33:28;;;;;;;2.25;1.50;;;22.60;64.70;;;;;;6115704;23;92296;-92
2023/08/02 02:35:53;;;;;;;2.00;1.42;;;22.60;64.70;;;;;;6115762;23;92663;-92
2023/08/02 02:38:19;;;;;;;1.67;1.52;;;22.60;64.60;;;;;;6114770;23;92529;-93
2023/08/02 02:40:45;;;;;;;1.60;1.45;;;22.60;64.70;;;;;;6113859;22;93893;-91
2023/08/02 02:43:10;;;;;;;1.35;1.20;;;22.60;64.60;;;;;;6114607;23;93067;-92
2023/08/02 02:45:36;;;;;;;2.17;1.50;;;22.60;64.60;;;;;;6116186;23;92565;-91
2023/08/02 02:48:02;;;;;;;1.30;1.20;;;22.60;64.40;;;;;;6087217;23;92046;-91
2023/08/02 02:50:28;;;;;;;2.47;1.48;;;22.60;64.80;;;;;;6087707;23;95877;-92
2023/08/02 02:52:54;;;;;;;1.95;1.27;;;22.60;64.60;;;;;;6114913;23;92100;-91
2023/08/02 02:55:19;;;;;;;1.42;1.30;;;22.60;64.70;;;;;;6115336;23;92626;-92
2023/08/02 02:57:45;;;;;;;1.33;1.23;;;22.60;64.60;;;;;;6114912;23;91132;-88
2023/08/02 03:00:11;;;;;;;1.63;1.23;;;22.60;64.60;;;;;;6116246;22;92724;-92
2023/08/02 03:02:36;;;;;;;2.50;1.42;;;22.60;64.60;;;;;;6114042;23;92261;-90
2023/08/02 03:05:02;;;;;;;1.60;1.10;;;22.60;64.50;;;;;;6111558;22;93367;-92
2023/08/02 03:07:28;;;;;;;1.88;1.42;;;22.60;64.40;;;;;;6113846;23;92039;-93
2023/08/02 03:09:55;;;;;;;2.08;1.50;;;22.60;64.40;;;;;;6115294;22;92984;-92
2023/08/02 03:12:21;;;;;;;1.33;1.02;;;22.60;64.40;;;;;;6115786;23;93076;-91
2023/08/02 03:14:47;;;;;;;1.83;1.30;;;22.60;64.40;;;;;;6088311;23;92619;-90
2023/08/02 03:17:13;;;;;;;2.17;1.25;;;22.60;64.40;;;;;;6116079;22;92396;-90
2023/08/02 03:19:38;;;;;;;2.33;1.55;;;22.50;64.30;;;;;;6087471;23;95680;-91
2023/08/02 03:22:04;;;;;;;1.48;1.23;;;22.50;64.50;;;;;;6113927;22;92265;-89
2023/08/02 03:24:30;;;;;;;2.25;1.20;;;22.50;64.50;;;;;;6115364;23;91988;-93
2023/08/02 03:26:57;;;;;;;2.45;1.52;;;22.50;64.30;;;;;;6114603;23;92299;-90
2023/08/02 03:29:23;;;;;;;1.40;1.08;;;22.50;64.50;;;;;;6113598;23;93501;-89
2023/08/02 03:31:48;;;;;;;1.73;1.40;;;22.50;64.50;;;;;;6112950;22;95375;-89
2023/08/02 03:34:15;;;;;;;1.85;1.42;;;22.60;64.20;;;;;;6113893;23;92309;-90
2023/08/02 03:36:43;;;;;;;1.98;1.30;;;22.50;64.30;;;;;;6088257;23;92026;-90
2023/08/02 03:39:10;;;;;;;2.80;1.35;;;22.50;64.40;;;;;;6115465;23;97067;-92
2023/08/02 03:41:36;;;;;;;1.70;1.33;;;22.50;64.30;;;;;;6113435;22;92931;-90
2023/08/02 03:44:02;;;;;;;1.60;1.13;;;22.50;64.30;;;;;;6115462;23;93147;-92
2023/08/02 03:46:27;;;;;;;1.52;1.20;;;22.50;64.40;;;;;;6115720;23;91164;-92
2023/08/02 03:48:53;;;;;;;1.67;1.20;;;22.50;64.40;;;;;;6112466;23;95280;-91
2023/08/02 03:51:18;;;;;;;2.55;1.65;;;22.50;64.50;;;;;;6115328;22;92518;-92
2023/08/02 03:53:44;;;;;;;1.60;1.40;;;22.50;64.40;;;;;;6115312;23;93235;-92
2023/08/02 03:56:10;;;;;;;1.48;1.20;;;22.50;64.50;;;;;;6114843;23;92260;-91
2023/08/02 03:58:35;;;;;;;1.85;1.27;;;22.50;64.10;;;;;;6113436;23;92879;-92
2023/08/02 04:01:01;;;;;;;1.20;1.10;;;22.50;64.40;;;;;;6113238;22;93019;-90
2023/08/02 04:03:26;;;;;;;1.20;1.00;;;22.50;64.40;;;;;;6088312;23;92322;-92
2023/08/02 04:05:52;;;;;;;1.20;1.02;;;22.50;64.50;;;;;;6114050;23;92879;-90
2023/08/02 04:08:18;;;;;;;1.63;1.33;;;22.50;64.50;;;;;;6114021;23;92762;-92
2023/08/02 04:10:43;;;;;;;1.45;1.33;;;22.50;64.60;;;;;;6114525;22;92659;-90
2023/08/02 04:13:09;;;;;;;1.38;0.98;;;22.50;64.50;;;;;;6114455;23;92480;-89
2023/08/02 04:15:35;;;;;;;1.25;1.15;;;22.50;64.50;;;;;;6116711;23;92459;-90
2023/08/02 04:18:02;;;;;;;1.60;1.10;;;22.50;64.40;;;;;;6115043;23;96021;-89
2023/08/02 04:20:28;;;;;;;2.13;1.30;;;22.50;64.20;;;;;;6087674;23;95164;-90
2023/08/02 04:22:53;;;;;;;2.38;1.30;;;22.50;64.40;;;;;;6088593;23;92730;-91
2023/08/02 04:25:19;;;;;;;1.75;1.00;;;22.50;64.30;;;;;;6110991;22;92438;-92
2023/08/02 04:27:45;;;;;;;1.63;1.20;;;22.50;64.30;;;;;;6112979;23;95242;-91
2023/08/02 04:30:11;;;;;;;1.40;1.30;;;22.50;64.30;;;;;;6119166;22;93179;-92
2023/08/02 04:32:37;;;;;;;2.53;1.30;;;22.50;64.60;;;;;;6118344;23;92602;-91
2023/08/02 04:35:03;;;;;;;1.23;1.13;;;22.50;64.60;;;;;;6118169;23;91940;-91
2023/08/02 04:37:29;;;;;;;1.70;1.40;;;22.50;64.60;;;;;;6118306;23;93966;-88
2023/08/02 04:39:54;;;;;;;1.75;1.27;;;22.50;64.50;;;;;;6118550;22;92881;-92
2023/08/02 04:42:20;;;;;;;2.03;1.40;;;22.50;64.50;;;;;;6119332;23;93035;-92
2023/08/02 04:44:46;;;;;;;1.50;1.00;;;22.50;64.40;;;;;;6118608;23;92343;-92
2023/08/02 04:47:11;;;;;;;2.35;1.55;;;22.50;64.30;;;;;;6117534;23;93157;-90
2023/08/02 04:49:37;;;;;;;1.75;1.23;;;22.50;64.40;;;;;;6118999;23;92454;-88
2023/08/02 04:52:03;;;;;;;1.83;1.40;;;22.50;64.20;;;;;;6118759;22;92391;-89
2023/08/02 04:54:28;;;;;;;1.63;1.15;;;22.40;64.30;;;;;;6120092;23;92476;-86
2023/08/02 04:56:54;;;;;;;1.42;1.13;;;22.40;64.30;;;;;;6119219;23;93062;-91
2023/08/02 04:59:20;;;;;;;1.52;1.27;;;22.50;64.20;;;;;;6118245;23;91979;-92
2023/08/02 05:01:45;;;;;;;2.75;1.40;;;22.50;64.40;;;;;;6078580;23;91990;-92
2023/08/02 05:04:11;;;;;;;2.08;1.50;;;22.50;64.10;;;;;;6117748;23;93230;-87
2023/08/02 05:06:37;;;;;;;2.08;1.20;;;22.50;64.30;;;;;;6119358;23;93352;-91
2023/08/02 05:09:04;;;;;;;1.30;1.20;;;22.50;64.40;;;;;;6092439;23;95252;-92
2023/08/02 05:11:31;;;;;;;1.40;1.30;;;22.50;64.30;;;;;;6119410;22;92508;-92
2023/08/02 05:13:57;;;;;;;1.30;1.20;;;22.50;64.10;;;;;;6119039;23;92633;-92
2023/08/02 05:16:23;;;;;;;1.95;1.27;;;22.50;64.30;;;;;;6119278;23;92966;-91
2023/08/02 05:18:48;;;;;;;1.48;1.30;;;22.40;64.10;;;;;;6118773;23;92260;-92
2023/08/02 05:21:18;;;;;;;1.42;1.33;;;22.40;64.30;;;;;;6093228;23;92441;-92
2023/08/02 05:23:45;;;;;;;1.00;0.90;;;22.40;64.20;;;;;;6118344;23;92129;-92
2023/08/02 05:26:10;;;;;;;2.03;1.55;;;22.40;64.30;;;;;;6116824;22;96121;-90
2023/08/02 05:28:36;;;;;;;1.10;1.00;;;22.40;64.40;;;;;;6118671;23;92450;-91
2023/08/02 05:31:03;;;;;;;2.05;1.23;;;22.50;64.40;;;;;;6117492;22;93614;-91
2023/08/02 05:33:29;;;;;;;1.35;1.15;;;22.40;64.40;;;;;;6119583;23;92302;-92
2023/08/02 05:35:54;;;;;;;1.33;1.23;;;22.40;64.30;;;;;;6116535;23;92994;-92
2023/08/02 05:38:20;;;;;;;1.65;1.20;;;22.40;64.20;;;;;;6117203;23;93257;-91
2023/08/02 05:40:46;;;;;;;1.48;1.33;;;22.40;64.30;;;;;;6119643;22;92416;-89
2023/08/02 05:43:12;;;;;;;1.58;1.15;;;22.40;64.30;;;;;;6118183;23;92695;-89
2023/08/02 05:45:38;;;;;;;1.50;1.40;;;22.40;64.00;;;;;;6115864;23;95849;-91
2023/08/02 05:48:04;;;;;;;1.10;1.00;;;22.40;64.20;;;;;;6116448;23;95189;-92
2023/08/02 05:50:31;;;;;;;1.33;1.23;;;22.40;64.10;;;;;;6117575;23;92685;-89
2023/08/02 05:52:56;;;;;;;1.30;1.20;;;22.40;64.20;;;;;;6093281;23;92249;-92
2023/08/02 05:55:22;;;;;;;1.27;1.15;;;22.50;64.30;;;;;;6091390;23;96074;-91
2023/08/02 05:57:51;;;;;;;1.10;1.00;;;22.40;64.00;;;;;;6117934;23;92926;-91
2023/08/02 06:00:17;;;;;;;1.42;1.20;;;22.40;64.30;;;;;;6117099;22;91961;-91
2023/08/02 06:02:42;;;;;;;1.55;1.33;;;22.40;64.30;;;;;;6092060;23;92502;-89
2023/08/02 06:05:08;;;;;;;1.98;1.38;;;22.40;64.20;;;;;;6118793;23;92718;-92
2023/08/02 06:07:34;;;;;;;2.03;1.13;;;22.40;64.20;;;;;;6117956;22;92347;-93
2023/08/02 06:10:00;;;;;;;1.42;1.10;;;22.40;63.90;;;;;;6119356;22;92119;-89
2023/08/02 06:12:25;;;;;;;1.67;1.40;;;22.40;64.10;;;;;;6092578;23;91792;-88
2023/08/02 06:14:51;;;;;;;3.97;1.50;;;22.40;64.20;;;;;;6114839;23;93401;-88
2023/08/02 06:17:17;;;;;;;5.32;1.23;;;22.50;65.20;;;;;;6113239;23;92993;-88
2023/08/02 06:19:42;;;;;;;2.63;1.35;;;22.40;64.20;;;;;;6114338;23;93569;-89
2023/08/02 06:22:09;;;;;;;2.00;1.20;;;22.50;64.20;;;;;;6086888;23;92866;-90
2023/08/02 06:24:35;;;;;;;5.50;1.35;;;22.50;63.90;;;;;;6112642;23;92822;-88
2023/08/02 06:27:00;;;;;;;3.53;1.42;;;22.60;64.20;;;;;;6085579;23;95311;-88
2023/08/02 06:29:26;;;;;;;2.65;1.40;;;22.50;64.30;;;;;;6087760;23;91992;-88
2023/08/02 06:31:52;;;;;;;4.35;1.70;;;22.60;64.40;;;;;;6114306;23;92625;-89
2023/08/02 06:34:17;;;;;;;6.55;1.58;;;22.50;64.60;;;;;;6116011;23;92270;-92
2023/08/02 06:36:43;;;;;;;7.50;1.95;;;22.50;64.90;;;;;;6117879;23;92351;-92
2023/08/02 06:39:08;;;;;;;4.43;1.90;;;22.60;65.00;;;;;;6122605;23;92303;-85
2023/08/02 06:41:34;;;;;;;6.75;1.58;;;22.60;65.10;;;;;;6116242;22;92156;-90
2023/08/02 06:44:00;;;;;;;5.72;1.73;;;22.60;65.10;;;;;;6118572;23;93607;-93
2023/08/02 06:46:25;;;;;;;2.38;1.73;;;22.60;65.30;;;;;;6118484;23;93307;-94
2023/08/02 06:48:51;;;;;;;8.18;2.22;;;22.50;65.50;;;;;;6114879;23;92401;-90
2023/08/02 06:51:17;;;;;;;3.17;1.50;;;22.50;65.60;;;;;;6116668;22;92370;-93
2023/08/02 06:53:42;;;;;;;5.03;2.00;;;22.40;65.70;;;;;;6116190;23;93068;-90
2023/08/02 06:56:16;;;;;;;6.82;1.90;;;22.50;65.80;;;;;;6119659;23;92896;-92
2023/08/02 06:58:42;;;;;;;4.88;1.80;;;22.40;65.70;;;;;;6120547;23;92354;-91
2023/08/02 07:01:19;;;;;;;3.63;1.77;;;22.40;66.00;;;;;;6117268;22;91565;-93
2023/08/02 07:03:46;;;;;;;4.45;1.73;;;22.40;65.90;;;;;;6119381;23;93629;-94
2023/08/02 07:06:16;;;;;;;1.95;1.50;;;22.50;65.90;;;;;;6095628;23;95593;-94
2023/08/02 07:08:42;;;;;;;2.67;1.55;;;22.40;66.20;;;;;;6118709;23;93303;-88
2023/08/02 07:11:08;;;;;;;4.00;1.90;;;22.40;66.90;;;;;;6102182;22;92552;-85
2023/08/02 07:13:36;;;;;;;4.60;1.50;;;22.40;66.00;;;;;;6117244;23;92635;-86
2023/08/02 07:16:02;;;;;;;5.35;1.77;;;22.40;66.10;;;;;;6118847;23;92711;-89
2023/08/02 07:18:28;;;;;;;3.00;1.80;;;22.40;66.30;;;;;;6119348;23;92573;-87
2023/08/02 07:20:53;;;;;;;5.10;1.92;;;22.50;66.20;;;;;;6117460;22;92296;-84
2023/08/02 07:23:20;;;;;;;5.03;1.75;;;22.50;66.10;;;;;;6116252;23;93378;-90
2023/08/02 07:25:45;;;;;;;2.58;1.80;;;22.40;66.50;;;;;;6116860;22;92788;-89
2023/08/02 07:28:11;;;;;;;6.95;1.80;;;22.40;66.40;;;;;;6116568;23;92240;-87
2023/08/02 07:30:37;;;;;;;5.20;1.80;;;22.40;66.60;;;;;;6116649;22;92285;-90
2023/08/02 07:33:05;;;;;;;4.28;1.85;;;22.50;66.50;;;;;;6116871;23;93590;-87
2023/08/02 07:35:36;;;;;;;4.63;1.95;;;22.50;66.50;;;;;;6116040;23;93925;-87
2023/08/02 07:38:02;;;;;;;12.63;3.05;;;22.50;66.50;;;;;;6120322;23;92310;-91
2023/08/02 07:40:28;;;;;;;13.05;2.80;;;22.50;66.40;;;;;;6115805;22;91881;-88
2023/08/02 07:42:54;;;;;;;26.90;6.78;;;22.60;66.40;;;;;;6089545;23;95960;-90
2023/08/02 07:45:20;;;;;;;26.45;6.63;;;22.70;65.80;;;;;;6118949;23;95266;-91
2023/08/02 07:47:45;;;;;;;28.50;6.40;;;22.60;66.20;;;;;;6118952;23;92346;-92
2023/08/02 07:50:11;;;;;;;16.80;3.38;;;22.50;66.20;;;;;;6118599;22;91692;-93
2023/08/02 07:52:36;;;;;;;20.35;4.22;;;22.60;66.30;;;;;;6119802;23;92338;-90
2023/08/02 07:55:02;;;;;;;26.45;5.47;;;22.60;66.40;;;;;;6119827;23;92373;-91
2023/08/02 07:57:32;;;;;;;19.83;5.75;;;22.60;66.50;;;;;;6119400;23;93302;-89
2023/08/02 07:59:58;;;;;;;;;;;22.50;66.80;;;;;;6114624;22;91897;-89
2023/08/02 08:02:25;;;;;;;17.80;5.05;;;22.50;67.00;;;;;;6118387;23;92842;-90
2023/08/02 08:04:51;;;;;;;22.25;4.90;;;22.50;67.40;;;;;;6114124;23;92619;-86
2023/08/02 08:07:17;;;;;;;20.50;5.03;;;22.40;66.90;;;;;;6116339;23;92455;-91
2023/08/02 08:09:43;;;;;;;22.05;5.45;;;22.40;67.00;;;;;;6118796;23;92368;-91
2023/08/02 08:12:09;;;;;;;24.17;5.53;;;22.40;67.00;;;;;;6117119;22;92548;-90
2023/08/02 08:14:34;;;;;;;23.30;5.90;;;22.40;67.40;;;;;;6115717;22;94422;-89
2023/08/02 08:17:01;;;;;;;19.27;5.47;;;22.40;67.30;;;;;;6117947;23;92918;-92
2023/08/02 08:19:27;;;;;;;11.48;4.13;;;22.40;67.30;;;;;;6114290;22;92317;-91
2023/08/02 08:21:53;;;;;;;23.70;4.95;;;22.40;67.60;;;;;;6086049;23;95889;-86
2023/08/02 08:24:19;;;;;;;18.77;4.82;;;22.40;67.70;;;;;;6114552;23;93533;-86
2023/08/02 08:26:45;;;;;;;15.00;4.35;;;22.40;67.60;;;;;;6114406;22;92675;-88
2023/08/02 08:29:10;;;;;;;13.07;4.20;;;22.40;67.80;;;;;;6116486;23;92478;-91
2023/08/02 08:31:36;;;;;;;13.43;4.53;;;22.40;67.80;;;;;;6115417;22;93136;-89
2023/08/02 08:34:02;;;;;;;12.20;3.80;;;22.50;67.90;;;;;;6115872;23;92286;-85
2023/08/02 08:36:31;;;;;;;16.20;4.13;;;22.50;67.80;;;;;;6114109;23;93110;-87
2023/08/02 08:38:57;;;;;;;16.63;4.20;;;22.60;68.30;;;;;;6116656;23;91711;-90
2023/08/02 08:41:23;;;;;;;14.57;3.60;;;22.60;68.10;;;;;;6117383;22;92626;-91
2023/08/02 08:43:49;;;;;;;11.25;3.45;;;22.60;68.30;;;;;;6114986;23;92688;-90
2023/08/02 08:46:15;;;;;;;17.25;3.85;;;22.60;68.40;;;;;;6114079;23;93689;-88
2023/08/02 08:48:41;;;;;;;13.57;3.78;;;22.60;68.60;;;;;;6091293;23;92432;-84
2023/08/02 08:51:10;;;;;;;11.63;3.50;;;22.60;69.20;;;;;;6116736;22;99036;-84
2023/08/02 08:53:39;;;;;;;14.52;3.22;;;22.60;69.10;;;;;;6115060;23;92620;-91
2023/08/02 08:56:05;;;;;;;16.15;3.30;;;22.60;69.60;;;;;;6089871;23;92369;-89
2023/08/02 08:58:35;;;;;;;9.50;3.22;;;22.60;69.80;;;;;;6117771;23;92540;-91
2023/08/02 09:01:04;;;;;;;10.68;2.60;;;22.60;70.40;;;;;;6116122;22;92672;-93
2023/08/02 09:03:29;;;;;;;8.03;2.90;;;22.60;70.50;;;;;;6091622;23;94674;-89
2023/08/02 09:06:03;;;;;;;7.68;2.60;;;22.60;70.50;;;;;;6115155;22;92457;-92
2023/08/02 09:08:39;;;;;;;9.55;3.13;;;22.60;70.60;;;;;;6117976;23;92331;-89
2023/08/02 09:11:05;;;;;;;6.60;2.28;;;22.60;71.10;;;;;;6089478;23;96474;-93
2023/08/02 09:13:31;;;;;;;8.50;2.58;;;22.70;71.00;;;;;;6115762;23;93191;-89
2023/08/02 09:16:10;;;;;;;8.25;2.08;;;22.80;70.90;;;;;;6088344;23;92124;-91
2023/08/02 09:18:47;;;;;;;7.85;2.10;;;22.80;71.20;;;;;;6116448;23;92646;-90
2023/08/02 09:21:21;;;;;;;6.10;2.38;;;22.90;71.30;;;;;;6114316;22;99494;-90
2023/08/02 09:23:47;;;;;;;6.85;2.65;;;22.90;71.10;;;;;;6113143;23;92236;-86
2023/08/02 09:26:18;;;;;;;10.85;2.70;;;23.00;70.80;;;;;;6113664;23;92465;-89
2023/08/02 09:29:01;;;;;;;7.05;2.15;;;23.00;70.80;;;;;;6112932;22;91606;-93
2023/08/02 09:31:28;;;;;;;3.90;1.48;;;23.00;71.10;;;;;;6116562;22;93373;-88
2023/08/02 09:33:55;;;;;;;8.77;2.40;;;23.10;71.20;;;;;;6117457;23;92638;-91
2023/08/02 09:36:23;;;;;;;4.43;1.75;;;23.10;71.10;;;;;;6118961;23;93448;-89
2023/08/02 09:39:09;;;;;;;5.70;2.05;;;23.00;70.80;;;;;;6091453;23;92382;-91
2023/08/02 09:41:34;;;;;;;6.07;1.77;;;23.10;72.00;;;;;;6090456;23;94904;-90
2023/08/02 09:44:00;;;;;;;3.83;1.67;;;23.10;70.90;;;;;;6117073;23;92351;-90
2023/08/02 09:46:30;;;;;;;5.68;1.75;;;23.10;70.80;;;;;;6119033;23;92512;-92
2023/08/02 09:48:57;;;;;;;4.65;1.88;;;23.10;71.20;;;;;;6116716;23;94811;-90
2023/08/02 09:51:44;;;;;;;6.18;1.90;;;23.00;71.20;;;;;;6116631;22;92310;-88
2023/08/02 09:54:11;;;;;;;4.55;1.90;;;23.00;71.30;;;;;;6115297;23;96824;-88
2023/08/02 09:56:38;;;;;;;3.53;1.30;;;23.10;71.10;;;;;;6088447;23;92536;-87
2023/08/02 09:59:06;;;;;;;3.30;1.30;;;23.10;71.40;;;;;;6112754;22;92520;-89
2023/08/02 10:01:32;;;;;;;15.10;1.63;;;23.10;71.60;;;;;;6112736;22;93507;-89
2023/08/02 10:04:01;;;;;;;3.40;1.27;;;23.10;71.50;;;;;;6086622;23;94830;-90
2023/08/02 10:06:44;;;;;;;3.65;1.20;;;23.10;71.60;;;;;;6115985;23;92188;-88
2023/08/02 10:09:14;;;;;;;4.72;1.52;;;23.10;71.90;;;;;;6088361;23;93316;-88
2023/08/02 10:12:02;;;;;;;5.30;1.85;;;23.00;72.10;;;;;;6087130;23;95793;-91
2023/08/02 10:14:30;;;;;;;2.55;1.15;;;23.00;72.40;;;;;;6115039;23;92483;-90
2023/08/02 10:17:00;;;;;;;1.77;1.15;;;23.00;72.30;;;;;;6115739;23;92281;-90
2023/08/02 10:19:27;;;;;;;6.05;1.48;;;23.00;72.30;;;;;;6116866;23;91780;-90
2023/08/02 10:21:57;;;;;;;2.15;0.95;;;23.00;72.30;;;;;;6115740;22;93085;-84
2023/08/02 10:24:25;;;;;;;3.22;1.13;;;23.00;72.60;;;;;;6088542;23;95377;-90
2023/08/02 10:26:55;;;;;;;3.13;1.30;;;23.00;72.50;;;;;;6088144;23;93983;-89
2023/08/02 10:29:23;;;;;;;3.65;1.20;;;23.00;73.00;;;;;;6087365;23;92707;-92
2023/08/02 10:31:48;;;;;;;2.50;1.05;;;23.00;73.30;;;;;;6112842;22;94845;-88
2023/08/02 10:34:35;;;;;;;2.67;1.00;;;23.00;73.50;;;;;;6115523;23;92839;-89
2023/08/02 10:37:02;;;;;;;2.90;1.23;;;23.00;72.70;;;;;;6113593;23;91966;-87
2023/08/02 10:39:46;;;;;;;2.00;1.35;;;23.00;72.80;;;;;;6116303;23;92587;-88
2023/08/02 10:42:52;;;;;;;8.60;1.30;;;23.00;73.00;;;;;;6118431;22;96934;-92
2023/08/02 10:45:18;;;;;;;3.17;1.08;;;23.00;72.90;;;;;;6095440;23;99134;-93
2023/08/02 10:47:43;;;;;;;4.47;1.10;;;22.90;72.90;;;;;;6093968;23;92469;-88
2023/08/02 10:50:42;;;;;;;3.45;0.98;;;22.90;73.00;;;;;;6117726;22;92167;-90
2023/08/02 10:53:09;;;;;;;2.20;0.98;;;22.90;73.20;;;;;;6114971;22;96141;-88
2023/08/02 10:55:35;;;;;;;4.90;1.33;;;22.90;73.60;;;;;;6090455;23;95049;-88
2023/08/02 10:58:08;;;;;;;5.40;1.65;;;22.90;73.90;;;;;;6117059;23;92368;-90
2023/08/02 11:00:39;;;;;;;4.35;1.52;;;23.00;73.60;;;;;;6117329;22;92465;-91
2023/08/02 11:03:05;;;;;;;8.07;1.42;;;22.90;73.50;;;;;;6112788;23;95728;-87
2023/08/02 11:05:46;;;;;;;7.07;1.40;;;22.90;73.40;;;;;;6091667;23;95669;-89
2023/08/02 11:08:12;;;;;;;5.15;1.08;;;23.00;74.00;;;;;;6085439;23;92711;-92
2023/08/02 11:10:52;;;;;;;3.60;1.33;;;23.00;74.20;;;;;;6114672;22;91928;-88
2023/08/02 11:13:19;;;;;;;3.42;1.40;;;23.10;73.90;;;;;;6113225;23;93624;-87
2023/08/02 11:15:45;;;;;;;9.20;1.30;;;23.10;73.90;;;;;;6117612;23;92029;-90
2023/08/02 11:18:11;;;;;;;5.53;1.30;;;23.20;73.80;;;;;;6090869;23;93406;-93
2023/08/02 11:20:38;;;;;;;8.35;1.50;;;23.20;73.70;;;;;;6091465;23;92688;-91
2023/08/02 11:23:23;;;;;;;6.40;1.10;;;23.10;74.00;;;;;;6120562;22;92819;-92
2023/08/02 11:25:50;;;;;;;2.92;1.73;;;23.20;74.10;;;;;;6119035;23;92334;-88
2023/08/02 11:28:16;;;;;;;6.35;1.30;;;23.20;74.10;;;;;;6097719;23;92632;-92
2023/08/02 11:30:44;;;;;;;2.40;1.30;;;23.20;74.20;;;;;;6128506;22;91839;-93
2023/08/02 11:33:11;;;;;;;5.80;1.42;;;23.30;74.10;;;;;;6120991;23;94821;-95
2023/08/02 11:35:37;;;;;;;3.88;1.27;;;23.30;74.10;;;;;;6121440;23;92410;-93
2023/08/02 11:38:04;;;;;;;4.35;1.52;;;23.30;74.50;;;;;;6119634;22;92403;-93
2023/08/02 11:40:36;;;;;;;3.60;1.42;;;23.20;74.30;;;;;;6121503;22;93173;-92
2023/08/02 11:43:02;;;;;;;4.40;1.17;;;23.20;74.60;;;;;;6125690;23;92926;-94
2023/08/02 11:45:35;;;;;;;2.05;1.10;;;23.30;75.30;;;;;;6124979;23;96611;-91
2023/08/02 11:48:01;;;;;;;6.18;1.20;;;23.30;75.00;;;;;;6126370;22;92352;-92
2023/08/02 11:50:29;;;;;;;1.58;1.00;;;23.30;75.10;;;;;;6124213;22;92298;-93
2023/08/02 11:53:21;;;;;;;4.65;1.23;;;23.40;75.30;;;;;;6122693;22;93159;-91
2023/08/02 11:55:47;;;;;;;4.25;1.10;;;23.40;75.20;;;;;;6082395;23;95122;-92
2023/08/02 11:58:13;;;;;;;5.55;1.48;;;23.40;74.90;;;;;;6092275;23;92343;-94
2023/08/02 12:00:38;;;;;;;5.05;1.40;;;23.40;74.80;;;;;;6119835;22;91709;-93
2023/08/02 12:03:15;;;;;;;2.97;1.05;;;23.40;74.80;;;;;;6093986;23;95263;-92
2023/08/02 12:05:43;;;;;;;3.63;1.27;;;23.30;75.10;;;;;;6117701;23;92320;-92
2023/08/02 12:08:14;;;;;;;3.58;1.30;;;23.20;75.10;;;;;;6092698;23;93190;-92
2023/08/02 12:10:41;;;;;;;3.95;1.40;;;23.10;75.20;;;;;;6118217;22;92130;-93
2023/08/02 12:13:15;;;;;;;7.13;1.10;;;23.10;75.30;;;;;;6092334;23;94270;-93
2023/08/02 12:15:58;;;;;;;2.22;0.93;;;23.00;75.60;;;;;;6094645;23;94053;-92
2023/08/02 12:18:24;;;;;;;2.65;1.27;;;23.00;75.70;;;;;;6119996;23;92976;-91
2023/08/02 12:20:50;;;;;;;5.88;1.10;;;23.00;75.40;;;;;;6092930;23;92360;-92
2023/08/02 12:23:35;;;;;;;5.38;1.00;;;23.00;76.30;;;;;;6093015;23;95167;-93
2023/08/02 12:26:01;;;;;;;6.13;1.42;;;22.90;75.30;;;;;;6094836;23;96387;-92
2023/08/02 12:28:47;;;;;;;3.28;1.23;;;22.90;75.10;;;;;;6121066;23;91956;-93
2023/08/02 12:31:14;;;;;;;2.67;1.33;;;22.90;74.80;;;;;;6120276;22;92689;-93
2023/08/02 12:33:40;;;;;;;4.60;1.45;;;22.90;74.80;;;;;;6119380;23;92953;-92
2023/08/02 12:36:06;;;;;;;6.20;1.83;;;22.90;74.70;;;;;;6088412;23;96554;-88
2023/08/02 12:38:32;;;;;;;4.13;1.40;;;23.00;74.30;;;;;;6089132;23;92446;-92
2023/08/02 12:40:59;;;;;;;3.10;1.27;;;23.00;74.00;;;;;;6115508;22;92540;-92
2023/08/02 12:43:26;;;;;;;4.15;1.50;;;23.00;74.00;;;;;;6091487;23;95592;-90
2023/08/02 12:45:52;;;;;;;4.78;1.65;;;23.10;74.10;;;;;;6090781;23;94139;-89
2023/08/02 12:48:18;;;;;;;5.57;1.42;;;23.20;73.70;;;;;;6115899;23;92180;-89